Vremea acum in Beclean - Romania

Vrei sa afli care e starea vremii acum in Bistrita-Nasaud - Romania? Dorim sa iti furnizam starea vremii pentru Bistrita-Nasaud - Romania. Starea vremii Bistrita-Nasaud - Romania pentru astazi.

Vremea acum in Beclean

Temperatura: 25.1 °C

Este: Senin
Se simte ca: 25.7 °C
Innorat: 0 %
Precipitatii: 0 %
Presiune atmosferica: 1016 hPa
Umiditate: 22%
Vizibilitate: 10 km
Vantul bate din WNW cu 13.7 km/h

Evolutia vremii in Beclean pe ore

Ora: 17:00
Senin
Temperatura: 25.1°C
Sansa de precipitatii: 0%
Ora Descriere Temp Se simte Precipitatii Umiditate Vant
00:00Senin6.3°6.3°0%79%N 1.4 KM/H
01:00Senin5.9°5.9°0%80%ENE 1.1 KM/H
02:00Senin5.5°5.5°0%82%ENE 1.1 KM/H
03:00Senin5.2°5.2°0%83%N 1.8 KM/H
04:00Senin4.9°4.9°0%84%N 2.2 KM/H
05:00Senin4.6°4.6°0%85%N 2.2 KM/H
06:00Senin4.3°4.3°0%86%ENE 1.4 KM/H
07:00Senin5.3°5.3°0%85%ESE 2.2 KM/H
08:00Senin9.7°9.7°0%77%ESE 1.1 KM/H
09:00Senin12.1°12.1°0%72%NW 0.7 KM/H
10:00Senin14.4°14.4°0%66%WNW 2.5 KM/H
11:00Senin16.6°16.6°0%61%WNW 3.2 KM/H
12:00Senin18.3°18.3°0%56%W 2.5 KM/H
13:00Senin19.3°19.3°0%51%W 6.5 KM/H
14:00Senin20.1°20.1°0%47%WNW 10.1 KM/H
15:00Senin20.7°20.7°0%45%WNW 11.9 KM/H
16:00Senin21°21°0%45%WNW 13.3 KM/H
17:00Senin25.1°20.8°0%22%WNW 13.7 KM/H
18:00Senin20.4°20.4°0%51%WNW 12.2 KM/H
19:00Senin19.2°19.2°0%61%WNW 9.4 KM/H
20:00Senin14.5°14.6°0%68%NW 6.5 KM/H
21:00Senin12.1°12.2°0%72%NW 5 KM/H
22:00Senin11.3°11.3°0%73%NW 4.7 KM/H
23:00Senin10.4°10.7°0%77%NNW 3.6 KM/H




tutorials